Time;durP1;ratioP1;P1;durP2;ratioP2;P2;SDS_P1;SDS_P2;PMS_P1;PMS_P2;Temp;Humidity;BMP_temperature;BMP_pressure;BME280_temperature;BME280_humidity;BME280_pressure;Samples;Min_cycle;Max_cycle;Signal;HPM_P1;HPM_P2
2021/12/22 00:02:10;;;;;;;1999.90;999.90;;;;;;;3.53;69.00;102353.00;15583814;28;20041;-63
2021/12/22 00:09:44;;;;;;;1999.90;999.90;;;;;;;3.63;69.02;102349.59;15573931;28;20513;-63
2021/12/22 00:17:17;;;;;;;1999.90;999.90;;;;;;;3.46;69.26;102361.44;15570754;28;20053;-61
2021/12/22 00:24:51;;;;;;;1999.90;999.90;;;;;;;3.33;69.40;102356.19;15583449;28;20125;-62
2021/12/22 00:32:27;;;;;;;1999.90;999.90;;;;;;;3.60;68.89;102358.38;15562116;28;20120;-61
2021/12/22 00:40:02;;;;;;;1999.90;999.90;;;;;;;2.92;70.68;102356.41;15581556;28;20112;-63
2021/12/22 00:47:35;;;;;;;1999.90;999.90;;;;;;;3.09;70.29;102360.94;15543503;28;20140;-62
2021/12/22 00:55:09;;;;;;;1999.90;999.90;;;;;;;3.56;69.18;102371.84;15557866;28;20052;-61
2021/12/22 01:02:42;;;;;;;1999.90;999.90;;;;;;;3.46;69.43;102377.16;15596899;28;20051;-62
2021/12/22 01:10:18;;;;;;;1999.90;999.90;;;;;;;3.45;67.78;102379.09;15599855;28;20061;-61
2021/12/22 01:17:59;;;;;;;1999.90;999.90;;;;;;;3.42;67.82;102375.94;15566893;28;20285;-63
2021/12/22 01:25:37;;;;;;;1999.90;999.90;;;;;;;3.59;68.15;102371.34;15592926;28;20474;-62
2021/12/22 01:33:10;;;;;;;1999.90;999.90;;;;;;;3.65;67.04;102375.88;15584060;28;20451;-63
2021/12/22 01:40:45;;;;;;;1999.90;999.90;;;;;;;3.79;67.37;102373.66;15586295;28;20496;-62
2021/12/22 01:56:20;;;;;;;1999.90;999.90;;;;;;;3.43;68.80;102394.19;15575135;28;20605;-63
2021/12/22 02:03:54;;;;;;;1999.90;999.90;;;;;;;3.14;69.53;102396.91;15579253;28;20048;-62
2021/12/22 02:11:28;;;;;;;;;;;;;;;3.28;69.55;102389.19;15587772;28;20053;-62
2021/12/22 02:19:03;;;;;;;1999.90;999.90;;;;;;;3.32;68.95;102382.09;15604668;28;19983;-62
2021/12/22 02:26:41;;;;;;;1999.90;999.90;;;;;;;3.26;68.95;102371.22;15577399;28;20052;-62
2021/12/22 02:34:15;;;;;;;1999.90;999.90;;;;;;;3.52;66.71;102380.84;15580496;28;20051;-62
2021/12/22 02:41:49;;;;;;;1999.90;999.90;;;;;;;3.43;66.33;102383.97;15580143;28;20073;-62
2021/12/22 02:49:22;;;;;;;1999.90;999.90;;;;;;;3.37;65.90;102384.97;15588153;28;20042;-62
2021/12/22 02:57:07;;;;;;;1999.90;999.90;;;;;;;3.36;66.25;102380.53;15580042;28;20084;-62
2021/12/22 03:04:52;;;;;;;1999.90;999.90;;;;;;;3.19;65.37;102380.47;15565049;28;20133;-63
2021/12/22 03:12:26;;;;;;;1999.90;999.90;;;;;;;3.28;64.86;102369.88;15583909;28;20065;-63
2021/12/22 03:19:59;;;;;;;1999.90;999.90;;;;;;;3.06;66.30;102361.41;15584882;28;20126;-62
2021/12/22 03:27:32;;;;;;;1999.90;999.90;;;;;;;2.90;65.41;102362.16;15569574;28;20041;-63
2021/12/22 03:35:06;;;;;;;1999.90;999.90;;;;;;;2.94;65.46;102365.28;15593236;28;20057;-63
2021/12/22 03:42:40;;;;;;;1999.90;999.90;;;;;;;2.92;66.14;102367.44;15582029;28;20069;-61
2021/12/22 03:50:15;;;;;;;1999.90;999.90;;;;;;;3.12;65.49;102367.88;15597026;28;20053;-63
2021/12/22 03:57:50;;;;;;;1999.90;999.90;;;;;;;3.01;66.21;102354.94;15580687;28;20103;-62
2021/12/22 04:05:22;;;;;;;1999.90;999.90;;;;;;;2.99;66.46;102354.34;15577751;28;20042;-63
2021/12/22 04:12:57;;;;;;;1999.90;999.90;;;;;;;3.10;65.72;102351.56;15597397;28;20048;-62
2021/12/22 04:20:35;;;;;;;1999.90;999.90;;;;;;;3.10;65.70;102356.25;15575540;28;20049;-63
2021/12/22 04:28:10;;;;;;;1999.90;999.90;;;;;;;3.11;65.59;102353.25;15570793;28;20046;-63
2021/12/22 04:35:43;;;;;;;1999.90;999.90;;;;;;;3.22;65.25;102342.41;15576580;28;20045;-63
2021/12/22 04:43:17;;;;;;;1999.90;999.90;;;;;;;3.14;65.50;102350.03;15574357;28;20104;-63
2021/12/22 04:50:50;;;;;;;1999.90;999.90;;;;;;;3.09;66.10;102349.06;15617734;28;20570;-62
2021/12/22 04:58:25;;;;;;;1999.90;999.90;;;;;;;3.07;64.97;102348.47;15595796;28;20064;-62
2021/12/22 05:05:57;;;;;;;1999.90;999.90;;;;;;;2.97;65.85;102351.00;15592163;28;20049;-63
2021/12/22 05:13:33;;;;;;;1999.90;999.90;;;;;;;3.01;65.37;102347.50;15582718;28;20061;-62
2021/12/22 05:21:06;;;;;;;1999.90;999.90;;;;;;;2.86;65.48;102344.44;15601190;28;20041;-62
2021/12/22 05:28:40;;;;;;;1999.90;999.90;;;;;;;2.62;66.75;102338.09;15618740;28;20045;-63
2021/12/22 05:36:12;;;;;;;1999.90;999.90;;;;;;;2.47;66.42;102337.75;15589192;28;20073;-64
2021/12/22 05:43:46;;;;;;;1999.90;999.90;;;;;;;2.42;67.01;102340.38;15586827;28;20116;-63
2021/12/22 05:51:35;;;;;;;1999.90;999.90;;;;;;;2.22;68.05;102347.06;15576632;28;20383;-63
2021/12/22 05:59:09;;;;;;;1999.90;999.90;;;;;;;2.20;67.74;102334.63;15581776;28;20042;-64
2021/12/22 06:06:43;;;;;;;1999.90;999.90;;;;;;;2.16;68.03;102339.75;15560008;28;20049;-64
2021/12/22 06:14:17;;;;;;;1999.90;999.90;;;;;;;2.01;68.59;102334.72;15592622;28;20053;-63
2021/12/22 06:21:50;;;;;;;1999.90;999.90;;;;;;;2.05;68.46;102339.72;15588041;28;20448;-63
2021/12/22 06:29:24;;;;;;;;;;;;;;;2.14;68.36;102335.56;15591339;28;20056;-62
2021/12/22 06:36:56;;;;;;;1999.90;999.90;;;;;;;1.97;67.92;102349.16;15603933;28;19927;-64
2021/12/22 06:44:30;;;;;;;1999.90;999.90;;;;;;;1.84;68.08;102349.38;15572241;28;20144;-63
2021/12/22 06:52:04;;;;;;;1999.90;999.90;;;;;;;1.84;67.97;102343.88;15603185;28;20050;-63
2021/12/22 06:59:38;;;;;;;1999.90;999.90;;;;;;;1.50;68.68;102340.78;15587264;28;20132;-63
2021/12/22 07:07:10;;;;;;;1999.90;999.90;;;;;;;1.64;68.10;102341.41;15607030;28;20084;-64
2021/12/22 07:14:44;;;;;;;1999.90;999.90;;;;;;;1.62;68.30;102343.56;15621594;28;20128;-62
2021/12/22 07:22:17;;;;;;;1999.90;999.90;;;;;;;1.44;68.86;102345.28;15621411;28;20050;-65
2021/12/22 07:29:51;;;;;;;1999.90;999.90;;;;;;;1.44;68.25;102356.28;15619072;28;20057;-63
2021/12/22 07:37:31;;;;;;;1999.90;999.90;;;;;;;1.44;68.54;102353.53;15601816;28;20045;-63
2021/12/22 07:45:07;;;;;;;1999.90;999.90;;;;;;;1.39;68.97;102347.06;15602593;28;20076;-64
2021/12/22 07:52:39;;;;;;;1999.90;999.90;;;;;;;1.27;69.82;102347.03;15622295;28;20083;-58
2021/12/22 08:00:15;;;;;;;1999.90;999.90;;;;;;;1.45;69.29;102340.63;15623556;28;20498;-58
2021/12/22 08:07:47;;;;;;;1999.90;999.90;;;;;;;1.57;68.69;102344.28;15637172;28;20099;-60
2021/12/22 08:15:21;;;;;;;1999.90;999.90;;;;;;;1.56;69.18;102350.84;15646812;28;20069;-58
2021/12/22 08:22:54;;;;;;;1999.90;999.90;;;;;;;1.72;68.62;102368.63;15631755;28;20403;-55
2021/12/22 08:30:28;;;;;;;1999.90;999.90;;;;;;;1.76;68.92;102356.06;15625069;28;20069;-59
2021/12/22 08:45:52;;;;;;;1999.90;999.90;;;;;;;2.26;67.39;102355.69;15537553;28;20053;-64
2021/12/22 08:53:24;;;;;;;1999.90;999.90;;;;;;;2.16;66.81;102349.94;15584160;28;20042;-60
2021/12/22 09:00:58;;;;;;;1999.90;999.90;;;;;;;2.49;66.91;102358.47;15605287;28;20494;-61
2021/12/22 09:08:31;;;;;;;1999.90;999.90;;;;;;;3.02;65.61;102351.09;15618579;28;20103;-63
2021/12/22 09:16:06;;;;;;;1999.90;999.90;;;;;;;3.26;64.67;102349.97;15615079;28;20049;-62
2021/12/22 09:23:39;;;;;;;1999.90;999.90;;;;;;;4.16;62.17;102351.09;15603436;28;20124;-64
2021/12/22 09:31:13;;;;;;;1999.90;999.90;;;;;;;5.40;60.26;102339.59;15611513;28;20038;-65
2021/12/22 09:38:46;;;;;;;1999.90;999.90;;;;;;;6.57;54.64;102346.31;15598098;28;20140;-65
2021/12/22 09:46:22;;;;;;;1999.90;999.90;;;;;;;6.86;54.26;102343.97;15598910;28;20095;-64
2021/12/22 09:53:56;;;;;;;1999.90;999.90;;;;;;;7.51;52.52;102335.13;15597758;28;20046;-63
2021/12/22 10:01:29;;;;;;;;;;;;;;;7.24;53.02;102326.97;15608861;28;20080;-64
2021/12/22 10:09:05;;;;;;;1999.90;999.90;;;;;;;6.56;54.05;102308.53;15608366;28;19921;-64
2021/12/22 10:16:47;;;;;;;1999.90;999.90;;;;;;;6.74;54.21;102307.28;15625916;28;20456;-64
2021/12/22 10:24:32;;;;;;;1999.90;999.90;;;;;;;6.95;53.59;102304.34;15624904;28;20053;-64
2021/12/22 10:32:12;;;;;;;1999.90;999.90;;;;;;;7.16;52.20;102293.31;15623838;28;20056;-61
2021/12/22 10:39:45;;;;;;;1999.90;999.90;;;;;;;6.52;53.76;102299.09;15607458;28;20598;-63
2021/12/22 10:47:33;;;;;;;1999.90;999.90;;;;;;;7.29;51.74;102294.75;15623808;28;20121;-63
2021/12/22 10:55:09;;;;;;;1999.90;999.90;;;;;;;6.99;52.81;102293.53;15619216;28;20050;-63
2021/12/22 11:02:49;;;;;;;1999.90;999.90;;;;;;;7.29;52.57;102289.19;15561392;28;20096;-63
2021/12/22 11:10:25;;;;;;;1999.90;999.90;;;;;;;7.18;52.04;102282.78;15561100;28;20514;-63
2021/12/22 11:17:59;;;;;;;1999.90;999.90;;;;;;;7.17;52.40;102283.88;15562074;28;20085;-63
2021/12/22 11:25:37;;;;;;;1999.90;999.90;;;;;;;8.19;49.05;102287.66;15559363;28;20057;-62
2021/12/22 11:33:10;;;;;;;1999.90;999.90;;;;;;;8.19;49.45;102281.25;15559293;28;20073;-64
2021/12/22 11:40:53;;;;;;;1999.90;999.90;;;;;;;8.31;49.43;102276.25;15560050;28;20425;-62
2021/12/22 11:48:27;;;;;;;1999.90;999.90;;;;;;;9.49;47.08;102267.22;15604675;28;20478;-64
2021/12/22 11:56:00;;;;;;;1999.90;999.90;;;;;;;8.08;49.04;102260.97;15579663;28;20042;-63
2021/12/22 12:03:36;;;;;;;;;;;;;;;9.46;45.85;102253.84;15613288;28;20530;-63
2021/12/22 12:11:10;;;;;;;1999.90;999.90;;;;;;;9.23;46.02;102243.41;15615415;28;20024;-63
2021/12/22 12:27:34;;;;;;;1999.90;999.90;;;;;;;11.12;41.21;102239.69;15616887;28;20053;-64
2021/12/22 12:35:26;;;;;;;1999.90;999.90;;;;;;;11.75;40.56;102228.97;15598880;28;20037;-63
2021/12/22 12:43:01;;;;;;;1999.90;999.90;;;;;;;11.63;40.93;102219.38;15616895;28;20057;-63
2021/12/22 12:50:34;;;;;;;1999.90;999.90;;;;;;;12.83;38.59;102216.66;15616869;28;20554;-60
2021/12/22 12:58:31;;;;;;;1999.90;999.90;;;;;;;10.60;42.29;102210.72;15615994;28;20107;-62
2021/12/22 13:06:09;;;;;;;1999.90;999.90;;;;;;;9.37;44.33;102197.06;15611418;28;20501;-60
2021/12/22 13:21:30;;;;;;;1999.90;999.90;;;;;;;8.62;46.31;102194.41;15631550;28;20045;-61
2021/12/22 13:29:03;;;;;;;1999.90;999.90;;;;;;;8.17;47.67;102177.81;15631113;28;20063;-61
2021/12/22 13:36:36;;;;;;;1999.90;999.90;;;;;;;7.44;49.12;102190.09;15637883;28;20473;-61
2021/12/22 13:44:10;;;;;;;1999.90;999.90;;;;;;;6.16;51.85;102179.66;15610134;28;20475;-60
2021/12/22 13:51:47;;;;;;;1999.90;999.90;;;;;;;5.63;53.45;102167.63;15633526;28;20454;-59
2021/12/22 13:59:24;;;;;;;1999.90;999.90;;;;;;;5.28;54.76;102170.91;15639721;28;20103;-60
2021/12/22 14:07:08;;;;;;;1999.90;999.90;;;;;;;4.76;56.60;102179.75;15646013;28;20041;-58
2021/12/22 14:14:47;;;;;;;1999.90;999.90;;;;;;;5.17;56.35;102167.19;15637348;28;20063;-60
2021/12/22 14:22:22;;;;;;;1999.90;999.90;;;;;;;4.83;57.29;102172.09;15605624;28;20474;-61
2021/12/22 14:29:58;;;;;;;1999.90;999.90;;;;;;;4.81;58.31;102176.22;15615226;28;20128;-61
2021/12/22 14:37:31;;;;;;;1999.90;999.90;;;;;;;4.23;59.02;102167.47;15593867;28;20132;-60
2021/12/22 14:45:21;;;;;;;1999.90;999.90;;;;;;;4.17;59.67;102154.69;15600530;28;20058;-61
2021/12/22 14:52:58;;;;;;;1999.90;999.90;;;;;;;3.85;60.73;102148.13;15604603;28;20041;-61
2021/12/22 15:00:36;;;;;;;1999.90;999.90;;;;;;;3.95;60.44;102143.59;15584391;28;20054;-60
2021/12/22 15:08:09;;;;;;;1999.90;999.90;;;;;;;3.84;60.79;102152.81;15599652;28;20054;-66
2021/12/22 15:15:43;;;;;;;1999.90;999.90;;;;;;;3.84;61.49;102143.69;15626939;28;20498;-65
2021/12/22 15:23:17;;;;;;;1999.90;999.90;;;;;;;3.56;61.84;102141.91;15629104;28;20049;-65
2021/12/22 15:30:52;;;;;;;1999.90;999.90;;;;;;;3.59;62.09;102144.13;15627047;28;20566;-67
2021/12/22 15:38:25;;;;;;;1999.90;999.90;;;;;;;3.33;62.32;102140.09;15615580;28;20042;-61
2021/12/22 15:45:59;;;;;;;1999.90;999.90;;;;;;;3.40;62.44;102138.88;15615231;28;20042;-62
2021/12/22 15:53:31;;;;;;;1999.90;999.90;;;;;;;3.23;62.75;102135.28;15585123;28;20049;-62
2021/12/22 16:01:06;;;;;;;1999.90;999.90;;;;;;;3.13;63.15;102133.19;15600641;28;20072;-63
2021/12/22 16:08:39;;;;;;;1999.90;999.90;;;;;;;3.07;63.50;102130.56;15618520;28;20128;-64
2021/12/22 16:16:13;;;;;;;1999.90;999.90;;;;;;;2.75;64.67;102119.22;15614289;28;20042;-62
2021/12/22 16:23:48;;;;;;;1999.90;999.90;;;;;;;2.38;65.77;102114.09;15608378;28;20048;-62
2021/12/22 16:31:21;;;;;;;1999.90;999.90;;;;;;;2.45;65.78;102109.28;15590530;28;20045;-59
2021/12/22 16:38:54;;;;;;;1999.90;999.90;;;;;;;2.59;64.68;102110.66;15611326;28;20049;-61
2021/12/22 16:46:28;;;;;;;1999.90;999.90;;;;;;;2.64;64.82;102107.16;15604678;28;20502;-61
2021/12/22 16:54:00;;;;;;;1999.90;999.90;;;;;;;2.58;65.20;102091.59;15592813;28;20103;-61
2021/12/22 17:01:37;;;;;;;1999.90;999.90;;;;;;;2.67;65.12;102098.41;15593659;28;20057;-62
2021/12/22 17:09:10;;;;;;;1999.90;999.90;;;;;;;2.35;65.46;102084.28;15629269;28;20284;-63
2021/12/22 17:16:44;;;;;;;1999.90;999.90;;;;;;;2.33;65.68;102083.69;15637041;28;20045;-61
2021/12/22 17:24:17;;;;;;;1999.90;999.90;;;;;;;2.01;66.39;102077.78;15651928;22;20114;-59
2021/12/22 17:31:52;;;;;;;1999.90;999.90;;;;;;;2.18;66.66;102081.44;15574467;28;20451;-58
2021/12/22 17:39:25;;;;;;;1999.90;999.90;;;;;;;2.15;66.09;102075.59;15590190;28;20354;-58
2021/12/22 17:46:58;;;;;;;1999.90;999.90;;;;;;;2.03;66.33;102064.63;15622539;28;20065;-59
2021/12/22 17:54:51;;;;;;;1999.90;999.90;;;;;;;1.99;66.46;102068.94;15603769;28;20413;-58
2021/12/22 18:02:25;;;;;;;1999.90;999.90;;;;;;;1.48;68.26;102048.56;15603549;28;20445;-59
2021/12/22 18:09:58;;;;;;;1999.90;999.90;;;;;;;1.57;67.66;102043.53;15584317;28;20057;-58
2021/12/22 18:17:32;;;;;;;1999.90;999.90;;;;;;;1.36;68.30;102018.31;15555409;28;20041;-58
2021/12/22 18:25:11;;;;;;;1999.90;999.90;;;;;;;1.26;68.95;102014.47;15613891;28;20049;-55
2021/12/22 18:32:45;;;;;;;1999.90;999.90;;;;;;;1.52;68.08;102004.88;15583086;28;20084;-57
2021/12/22 18:40:24;;;;;;;1999.90;999.90;;;;;;;1.43;68.06;102005.25;15603104;28;20088;-59
2021/12/22 18:47:58;;;;;;;1999.90;999.90;;;;;;;1.57;67.68;101992.09;15601670;28;20413;-59
2021/12/22 18:55:30;;;;;;;1999.90;999.90;;;;;;;1.36;68.10;101990.81;15578131;28;20072;-56
2021/12/22 19:03:06;;;;;;;1999.90;999.90;;;;;;;1.53;67.81;101970.78;15593839;28;20099;-55
2021/12/22 19:10:40;;;;;;;1999.90;999.90;;;;;;;1.42;68.05;101972.47;15598158;28;20052;-58
2021/12/22 19:18:13;;;;;;;;;;;;;;;1.44;67.86;101971.16;15599264;28;20552;-58
2021/12/22 19:25:46;;;;;;;1999.90;999.90;;;;;;;1.38;68.36;101971.31;15600108;28;20043;-60
2021/12/22 19:33:20;;;;;;;1999.90;999.90;;;;;;;1.11;68.60;101976.44;15569644;28;20418;-59
2021/12/22 19:40:53;;;;;;;1999.90;999.90;;;;;;;1.17;68.59;101953.50;15548024;28;20192;-58
2021/12/22 19:48:27;;;;;;;1999.90;999.90;;;;;;;1.29;67.96;101951.56;15590536;28;20110;-55
2021/12/22 19:56:00;;;;;;;1999.90;999.90;;;;;;;1.14;68.07;101951.22;15571169;28;20451;-59
2021/12/22 20:03:35;;;;;;;1999.90;999.90;;;;;;;1.21;67.47;101946.44;15566329;28;20163;-60
2021/12/22 20:11:08;;;;;;;1999.90;999.90;;;;;;;1.12;68.19;101932.22;15601824;28;20572;-59
2021/12/22 20:18:42;;;;;;;1999.90;999.90;;;;;;;0.96;68.63;101938.47;15562039;28;20042;-59
2021/12/22 20:26:15;;;;;;;1999.90;999.90;;;;;;;0.94;68.45;101920.50;15554471;28;20473;-59
2021/12/22 20:33:49;;;;;;;1999.90;999.90;;;;;;;0.58;69.22;101909.53;15549585;28;20050;-58
2021/12/22 20:41:22;;;;;;;1999.90;999.90;;;;;;;0.74;68.93;101904.41;15547261;28;20543;-59
2021/12/22 20:48:56;;;;;;;1999.90;999.90;;;;;;;0.62;68.76;101903.53;15532957;28;20046;-59
2021/12/22 20:56:28;;;;;;;1999.90;999.90;;;;;;;0.75;68.43;101884.94;15547724;28;20120;-60
2021/12/22 21:04:04;;;;;;;1999.90;999.90;;;;;;;0.61;67.98;101875.25;15543961;28;20054;-58
2021/12/22 21:11:39;;;;;;;1999.90;999.90;;;;;;;0.54;68.45;101858.91;15546525;28;20207;-60
2021/12/22 21:19:13;;;;;;;1999.90;999.90;;;;;;;0.21;69.35;101842.16;15545471;28;20049;-60
2021/12/22 21:26:45;;;;;;;1999.90;999.90;;;;;;;0.44;68.25;101853.16;15532071;28;20038;-59
2021/12/22 21:34:20;;;;;;;1999.90;999.90;;;;;;;0.40;68.33;101837.38;15576695;28;20069;-58
2021/12/22 21:41:52;;;;;;;1999.90;999.90;;;;;;;0.49;68.41;101827.72;15596369;28;20056;-58
2021/12/22 21:49:26;;;;;;;1999.90;999.90;;;;;;;0.36;68.36;101822.47;15549620;28;20050;-58
2021/12/22 21:56:59;;;;;;;1999.90;999.90;;;;;;;0.39;67.94;101820.06;15609334;28;20422;-59
2021/12/22 22:04:32;;;;;;;1999.90;999.90;;;;;;;0.36;68.58;101808.72;15592449;28;20119;-60
2021/12/22 22:12:06;;;;;;;1999.90;999.90;;;;;;;0.41;68.72;101809.66;15567248;28;20116;-52
2021/12/22 22:19:40;;;;;;;1999.90;999.90;;;;;;;-0.11;69.94;101805.91;15570570;28;20053;-59
2021/12/22 22:27:13;;;;;;;1999.90;999.90;;;;;;;0.40;68.55;101797.03;15556890;28;20633;-59
2021/12/22 22:34:47;;;;;;;1999.90;999.90;;;;;;;0.47;68.38;101797.75;15560200;28;20188;-56
2021/12/22 22:42:19;;;;;;;1999.90;999.90;;;;;;;0.34;67.72;101784.25;15543432;28;20042;-55
2021/12/22 22:49:53;;;;;;;1999.90;999.90;;;;;;;0.11;68.67;101770.53;15570190;28;20049;-59
2021/12/22 22:57:25;;;;;;;1999.90;999.90;;;;;;;-0.02;68.86;101758.69;15575402;28;20141;-60
2021/12/22 23:04:59;;;;;;;1999.90;999.90;;;;;;;-0.03;69.32;101768.00;15578442;28;20042;-60
2021/12/22 23:12:34;;;;;;;1999.90;999.90;;;;;;;0.04;69.14;101750.59;15581373;28;20049;-58
2021/12/22 23:20:09;;;;;;;1999.90;999.90;;;;;;;0.12;67.92;101758.50;15647974;22;20501;-63
2021/12/22 23:27:42;;;;;;;1999.90;999.90;;;;;;;-0.18;69.29;101755.84;15665633;28;20417;-62
2021/12/22 23:35:19;;;;;;;1999.90;999.90;;;;;;;-0.29;68.72;101741.03;15644682;28;20044;-63
2021/12/22 23:43:16;;;;;;;1999.90;999.90;;;;;;;-0.35;70.01;101729.06;15692773;28;20494;-63
2021/12/22 23:50:50;;;;;;;1999.90;999.90;;;;;;;-0.50;69.90;101715.00;15715447;28;20464;-63
2021/12/22 23:58:23;;;;;;;1999.90;999.90;;;;;;;-0.28;68.62;101697.97;15701071;28;20059;-62
